Terminal Aerodrome Forecast
Issued by NWS Cleveland, OH

Home | Current Version | Previous Version | Text Only | Print | Product List | Glossary On
Versions: 1 2 3 4 5 6 7 8 9 10 11
829
FTUS41 KCLE 241137
TAFTOL
TAF
KTOL 241137Z 2412/2512 VRB03KT P6SM FEW100 SCT250
     FM241400 08010G18KT P6SM SCT100 BKN250
     FM250100 09008KT P6SM SCT050 BKN100=

USA.gov is the U.S. government's official web portal to all federal, state and local government web resources and services.